aviador You're here:

PAYA Decoded Metar

YAKUTAT in AK, USA
Report Time2018-01-17 17:13:00
UTC Time2018-01-17 18:13:26
Flight Rules mvfr MVFR
Wind020° at 07 kt
W.Decomp.*RWY 02: 6.6 kt HW 2.4 kt LCW
RWY 29: 2.4 kt HW 6.6 kt RCW
W.Rank020° ranks 30
Current wind is above 020° avg. (3.8)
Visibility9656 m
Phenomena:Rain
Mist
Clouds:Few 014 Hf
Overcast 020 Hf
Expected CloudBase > 400 ft AGL from Temp-Dew spread
Ceiling2,000 ft
Temp03°C (ISA -12)
Dew Point02°C (93% RH)
AAT-1.2°C
QNH1003 hPa
Density Alt-974 ft
Elevation36 ft
Report Wrong Elevation
Raw Report
PAYA 171713Z 02007KT 6SM RA BR FEW014 OVC020 03/02 A2961 RMK VIA
PHONE=

Extra information for PAYA:More info

Metar Taf Metar & Taf Last 4 Metars F.Rules Stats Wind Profile Meteogram Temp Stats Airport Information Weather charts Add Link Nearby VenuesMetar ALERT Operation Metar Decoded Social comments

AIRNAV info for PAYA